createdAt,value
2022-11-10T00:01:07.172Z,78272.19
2022-11-10T00:03:34.716Z,78278.34
2022-11-10T00:06:02.536Z,78268.06
2022-11-10T00:08:29.808Z,78268.06
2022-11-10T00:11:01.450Z,78278.34
2022-11-10T00:13:32.817Z,78274.22
2022-11-10T00:16:22.330Z,78280.41
2022-11-10T00:18:49.992Z,78284.50
2022-11-10T00:21:17.227Z,78278.34
2022-11-10T00:23:45.631Z,78266.00
2022-11-10T00:26:13.545Z,78257.78
2022-11-10T00:28:40.827Z,78261.88
2022-11-10T00:31:07.969Z,78274.22
2022-11-10T00:33:36.357Z,78280.41
2022-11-10T00:36:04.736Z,78280.41
2022-11-10T00:38:31.873Z,78282.47
2022-11-10T00:40:59.893Z,78284.50
2022-11-10T00:43:27.652Z,78282.47
2022-11-10T00:45:55.413Z,78261.88
2022-11-10T00:48:22.779Z,78268.06
2022-11-10T00:50:50.862Z,78263.94
2022-11-10T00:53:18.550Z,78249.56
2022-11-10T00:55:45.906Z,78257.78
2022-11-10T00:58:12.941Z,78241.31
2022-11-10T01:00:40.598Z,78257.78
2022-11-10T01:03:07.735Z,78268.06
2022-11-10T01:05:38.184Z,78294.78
2022-11-10T01:08:05.412Z,78282.47
2022-11-10T01:10:32.632Z,78298.91
2022-11-10T01:12:59.660Z,78274.22
2022-11-10T01:15:28.051Z,78274.22
2022-11-10T01:17:59.217Z,78278.34
2022-11-10T01:20:26.896Z,78274.22
2022-11-10T01:22:55.007Z,78261.88
2022-11-10T01:25:22.250Z,78255.72
2022-11-10T01:27:50.124Z,78237.22
2022-11-10T01:30:42.004Z,78239.28
2022-11-10T01:33:10.218Z,78245.44
2022-11-10T01:35:37.337Z,78270.13
2022-11-10T01:38:05.664Z,78257.78
2022-11-10T01:40:32.937Z,78272.19
2022-11-10T01:43:00.696Z,78280.41
2022-11-10T01:45:44.744Z,78286.56
2022-11-10T01:48:16.754Z,78300.97
2022-11-10T01:50:44.100Z,78296.84
2022-11-10T01:53:13.704Z,78276.28
2022-11-10T01:55:42.069Z,78274.22
2022-11-10T01:58:09.131Z,78276.28
2022-11-10T02:00:36.246Z,78266.00
2022-11-10T02:03:04.219Z,78282.47
2022-11-10T02:05:31.254Z,78303.03
2022-11-10T02:07:58.356Z,78282.47
2022-11-10T02:10:25.780Z,78311.25
2022-11-10T02:12:54.353Z,78319.47
2022-11-10T02:15:21.442Z,78319.47
2022-11-10T02:17:48.552Z,78315.38
2022-11-10T02:20:16.806Z,78354.44
2022-11-10T02:22:47.634Z,78368.84
2022-11-10T02:25:17.044Z,78366.78
2022-11-10T02:27:44.066Z,78360.63
2022-11-10T02:30:11.434Z,78344.16
2022-11-10T02:32:38.496Z,78344.16
2022-11-10T02:35:06.118Z,78344.16
2022-11-10T02:37:33.246Z,78344.16
2022-11-10T02:40:00.361Z,78327.72
2022-11-10T02:42:27.494Z,78331.81
2022-11-10T02:44:54.796Z,78325.66
2022-11-10T02:47:21.839Z,78317.41
2022-11-10T02:49:49.658Z,78315.38
2022-11-10T02:52:16.672Z,78327.72
2022-11-10T02:54:43.900Z,78307.13
2022-11-10T02:57:10.990Z,78317.41
2022-11-10T02:59:38.056Z,78331.81
2022-11-10T03:02:05.156Z,78319.47
2022-11-10T03:04:32.627Z,78327.72
2022-11-10T03:06:59.722Z,78327.72
2022-11-10T03:09:27.188Z,78319.47
2022-11-10T03:11:54.275Z,78317.41
2022-11-10T03:14:21.404Z,78335.94
2022-11-10T03:16:49.690Z,78340.03
2022-11-10T03:19:17.015Z,78346.22
2022-11-10T03:21:44.086Z,78331.81
2022-11-10T03:24:11.285Z,78319.47
2022-11-10T03:26:38.400Z,78315.38
2022-11-10T03:29:05.440Z,78315.38
2022-11-10T03:31:32.585Z,78311.25
2022-11-10T03:33:59.640Z,78323.59
2022-11-10T03:36:26.741Z,78315.38
2022-11-10T03:38:54.370Z,78311.25
2022-11-10T03:41:21.433Z,78307.13
2022-11-10T03:43:49.514Z,78307.13
2022-11-10T03:46:16.867Z,78294.78
2022-11-10T03:48:48.759Z,78290.69
2022-11-10T03:51:19.073Z,78298.91
2022-11-10T03:53:46.404Z,78298.91
2022-11-10T03:56:13.751Z,78294.78
2022-11-10T03:58:40.938Z,78282.47
2022-11-10T04:01:10.011Z,78280.41
2022-11-10T04:03:37.117Z,78303.03
2022-11-10T04:06:23.325Z,78290.69
2022-11-10T04:09:00.184Z,78278.34
2022-11-10T04:11:46.591Z,78266.00
2022-11-10T04:14:32.276Z,78278.34
2022-11-10T04:17:00.404Z,78257.78
2022-11-10T04:19:27.467Z,78253.66
2022-11-10T04:21:54.563Z,78261.88
2022-11-10T04:24:22.794Z,78278.34
2022-11-10T04:26:49.997Z,78278.34
2022-11-10T04:29:18.293Z,78274.22
2022-11-10T04:31:45.539Z,78274.22
2022-11-10T04:34:13.488Z,78278.34
2022-11-10T04:36:41.591Z,78294.78
2022-11-10T04:39:09.244Z,78298.91
2022-11-10T04:41:36.419Z,78276.28
2022-11-10T04:44:03.578Z,78274.22
2022-11-10T04:46:31.805Z,78263.94
2022-11-10T04:48:59.042Z,78274.22
2022-11-10T04:51:27.003Z,78278.34
2022-11-10T04:53:54.305Z,78268.06
2022-11-10T04:56:22.065Z,78257.78
2022-11-10T04:58:49.225Z,78266.00
2022-11-10T05:01:17.200Z,78286.56
2022-11-10T05:03:44.363Z,78290.69
2022-11-10T05:06:11.575Z,78282.47
2022-11-10T05:08:39.653Z,78278.34
2022-11-10T05:11:07.494Z,78268.06
2022-11-10T05:13:34.597Z,78268.06
2022-11-10T05:16:01.744Z,78298.91
2022-11-10T05:18:28.938Z,78298.91
2022-11-10T05:20:56.354Z,78290.69
2022-11-10T05:23:38.766Z,78303.03
2022-11-10T05:26:05.914Z,78333.88
2022-11-10T05:28:37.230Z,78344.16
2022-11-10T05:31:04.377Z,78321.53
2022-11-10T05:33:32.405Z,78300.97
2022-11-10T05:35:59.626Z,78313.31
2022-11-10T05:38:26.732Z,78317.41
2022-11-10T05:40:53.952Z,78319.47
2022-11-10T05:43:21.601Z,78292.75
2022-11-10T05:45:48.995Z,78329.75
2022-11-10T05:48:16.046Z,78294.78
2022-11-10T05:50:43.871Z,78257.78
2022-11-10T05:53:11.035Z,78249.56
2022-11-10T05:55:38.142Z,78253.66
2022-11-10T05:58:05.188Z,78266.00
2022-11-10T06:00:32.686Z,78263.94
2022-11-10T06:03:06.688Z,78278.34
2022-11-10T06:05:34.540Z,78266.00
2022-11-10T06:08:01.894Z,78233.09
2022-11-10T06:10:29.420Z,78237.22
2022-11-10T06:12:56.562Z,78206.34
2022-11-10T06:15:23.905Z,78183.75
2022-11-10T06:17:50.948Z,78208.41
2022-11-10T06:20:20.012Z,78208.41
2022-11-10T06:23:00.123Z,78179.63
2022-11-10T06:25:28.573Z,78134.38
2022-11-10T06:27:55.841Z,78126.16
2022-11-10T06:30:23.060Z,78080.91
2022-11-10T06:32:50.502Z,78050.06
2022-11-10T06:35:18.672Z,78029.50
2022-11-10T06:37:46.015Z,77982.19
2022-11-10T06:40:14.903Z,77936.94
2022-11-10T06:42:42.494Z,77928.72
2022-11-10T06:45:10.967Z,77945.19
2022-11-10T06:47:38.516Z,77875.25
2022-11-10T06:50:05.777Z,77817.69
2022-11-10T06:52:33.433Z,77873.19
2022-11-10T06:55:00.446Z,77830.00
2022-11-10T06:57:27.601Z,77879.38
2022-11-10T06:59:54.841Z,77916.38
2022-11-10T07:02:22.069Z,77871.16
2022-11-10T07:04:50.747Z,77895.81
2022-11-10T07:07:18.005Z,77912.28
2022-11-10T07:09:45.432Z,77893.75
2022-11-10T07:12:12.949Z,77889.66
2022-11-10T07:14:40.227Z,77885.53
2022-11-10T07:17:08.479Z,77875.25
2022-11-10T07:19:35.597Z,77891.72
2022-11-10T07:22:08.022Z,77867.03
2022-11-10T07:24:37.891Z,77799.16
2022-11-10T07:27:05.301Z,77778.59
2022-11-10T07:29:32.491Z,77741.59
2022-11-10T07:31:59.623Z,77714.84
2022-11-10T07:34:26.681Z,77686.06
2022-11-10T07:36:54.862Z,77673.72
2022-11-10T07:39:21.896Z,77673.72
2022-11-10T07:41:52.468Z,77603.81
2022-11-10T07:44:19.939Z,77546.25
2022-11-10T07:46:47.245Z,77546.25
2022-11-10T07:49:14.403Z,77406.41
2022-11-10T07:51:42.462Z,77258.38
2022-11-10T07:54:09.719Z,77017.81
2022-11-10T07:56:37.136Z,76830.75
2022-11-10T07:59:04.215Z,76690.94
2022-11-10T08:01:31.721Z,76596.38
2022-11-10T08:03:58.847Z,76649.84
2022-11-10T08:06:26.082Z,76769.06
2022-11-10T08:08:54.690Z,76701.22
2022-11-10T08:11:21.809Z,76748.50
2022-11-10T08:13:50.250Z,76715.63
2022-11-10T08:16:17.349Z,76518.28
2022-11-10T08:18:44.383Z,76497.72
2022-11-10T08:21:11.676Z,76337.38
2022-11-10T08:23:38.768Z,76283.94
2022-11-10T08:26:06.003Z,76181.16
2022-11-10T08:28:33.203Z,76209.94
2022-11-10T08:31:05.497Z,76275.72
2022-11-10T08:33:33.265Z,76394.94
2022-11-10T08:36:01.099Z,76411.38
2022-11-10T08:38:28.407Z,76390.81
2022-11-10T08:40:56.179Z,76316.81
2022-11-10T08:43:23.713Z,76179.09
2022-11-10T08:45:53.587Z,76154.44
2022-11-10T08:48:20.823Z,76181.16
2022-11-10T08:50:49.645Z,76177.06
2022-11-10T08:53:17.778Z,76107.16
2022-11-10T08:55:44.878Z,76086.63
2022-11-10T08:58:13.120Z,76004.41
2022-11-10T09:00:41.735Z,75905.75
2022-11-10T09:03:13.720Z,76004.41
2022-11-10T09:05:41.359Z,76010.56
2022-11-10T09:08:08.838Z,75829.69
2022-11-10T09:10:38.433Z,75918.06
2022-11-10T09:13:10.367Z,75992.06
2022-11-10T09:15:38.408Z,76242.81
2022-11-10T09:18:07.307Z,76148.28
2022-11-10T09:20:34.985Z,75881.09
2022-11-10T09:23:15.259Z,75918.06
2022-11-10T09:25:42.752Z,75839.97
2022-11-10T09:28:13.477Z,75821.47
2022-11-10T09:30:41.466Z,75766.00
2022-11-10T09:33:08.852Z,75755.72
2022-11-10T09:35:36.781Z,76008.50
2022-11-10T09:38:03.961Z,76047.56
2022-11-10T09:40:50.637Z,76086.63
2022-11-10T09:43:20.597Z,76101.00
2022-11-10T09:45:48.702Z,75895.47
2022-11-10T09:48:17.453Z,76105.13
2022-11-10T09:50:44.772Z,76004.41
2022-11-10T09:53:12.801Z,76168.84
2022-11-10T09:55:44.076Z,76140.06
2022-11-10T09:58:11.796Z,76142.09
2022-11-10T10:00:40.182Z,75893.41
2022-11-10T10:03:09.069Z,75967.41
2022-11-10T10:05:40.639Z,75926.28
2022-11-10T10:08:09.092Z,76000.28
2022-11-10T10:11:14.560Z,75998.22
2022-11-10T10:14:01.825Z,76164.72
2022-11-10T10:16:31.894Z,76238.72
2022-11-10T10:19:17.655Z,76045.50
2022-11-10T10:21:50.577Z,76039.34
2022-11-10T10:24:21.848Z,76148.28
2022-11-10T10:26:50.843Z,76189.38
2022-11-10T10:29:44.221Z,76189.38
2022-11-10T10:32:11.782Z,76094.84
2022-11-10T10:34:38.947Z,76148.28
2022-11-10T10:37:14.500Z,76172.94
2022-11-10T10:39:42.505Z,76300.38
2022-11-10T10:42:32.797Z,76483.31
2022-11-10T10:45:18.386Z,76703.28
2022-11-10T10:47:47.270Z,76830.75
2022-11-10T10:50:26.643Z,76826.63
2022-11-10T10:53:14.209Z,76818.41
2022-11-10T10:55:45.999Z,76555.28
2022-11-10T10:58:32.716Z,76403.16
2022-11-10T11:01:05.444Z,76547.06
2022-11-10T11:03:40.007Z,76649.84
2022-11-10T11:06:12.297Z,76695.06
2022-11-10T11:08:39.341Z,76797.84
2022-11-10T11:11:08.560Z,76859.53
2022-11-10T11:13:36.733Z,76898.59
2022-11-10T11:16:07.788Z,76964.38
2022-11-10T11:18:35.347Z,76989.03
2022-11-10T11:21:07.957Z,76984.94
2022-11-10T11:23:53.621Z,76943.81
2022-11-10T11:26:33.772Z,76933.53
2022-11-10T11:29:06.909Z,76863.63
2022-11-10T11:31:42.711Z,76853.34
2022-11-10T11:34:22.083Z,76740.28
2022-11-10T11:36:49.420Z,76538.81
2022-11-10T11:39:29.076Z,76579.94
2022-11-10T11:41:58.924Z,76555.28
2022-11-10T11:44:39.756Z,76592.28
2022-11-10T11:47:25.736Z,76760.84
2022-11-10T11:49:52.851Z,76777.28
2022-11-10T11:52:19.875Z,76824.56
2022-11-10T11:54:49.324Z,76767.00
2022-11-10T11:57:16.368Z,76855.41
2022-11-10T11:59:57.280Z,76808.13
2022-11-10T12:02:42.835Z,76834.84
2022-11-10T12:05:17.512Z,77056.88
2022-11-10T12:08:03.599Z,77005.50
2022-11-10T12:10:31.139Z,76974.66
2022-11-10T12:13:06.084Z,76949.97
2022-11-10T12:15:36.414Z,77007.53
2022-11-10T12:18:03.465Z,77017.81
2022-11-10T12:20:37.018Z,77098.00
2022-11-10T12:23:06.818Z,77135.03
2022-11-10T12:25:58.386Z,77114.47
2022-11-10T12:28:31.443Z,77155.56
2022-11-10T12:31:02.005Z,77147.34
2022-11-10T12:33:42.354Z,77157.63
2022-11-10T12:36:11.756Z,77241.94
2022-11-10T12:38:59.899Z,77198.75
2022-11-10T12:41:28.493Z,77204.91
2022-11-10T12:44:01.637Z,77188.47
2022-11-10T12:46:29.115Z,77196.69
2022-11-10T12:49:05.979Z,77221.38
2022-11-10T12:51:34.224Z,77188.47
2022-11-10T12:54:01.717Z,77188.47
2022-11-10T12:56:30.579Z,77188.47
2022-11-10T12:59:16.112Z,77204.91
2022-11-10T13:01:43.398Z,77188.47
2022-11-10T13:04:13.105Z,77213.16
2022-11-10T13:06:48.807Z,77237.81
2022-11-10T13:09:23.336Z,77244.00
2022-11-10T13:12:10.193Z,77250.16
2022-11-10T13:14:40.494Z,77262.50
2022-11-10T13:17:08.091Z,77291.28
2022-11-10T13:19:39.127Z,77307.72
2022-11-10T13:22:09.075Z,77311.84
2022-11-10T13:24:37.086Z,77344.72
2022-11-10T13:27:14.334Z,77385.84
2022-11-10T13:29:47.452Z,77369.41
2022-11-10T13:32:14.593Z,77398.19
2022-11-10T13:34:42.161Z,77396.13
2022-11-10T13:37:28.054Z,77414.66
2022-11-10T13:40:17.441Z,77443.44
2022-11-10T13:42:47.245Z,77484.56
2022-11-10T13:45:29.881Z,77507.16
2022-11-10T13:48:01.474Z,77505.13
2022-11-10T13:50:28.656Z,77505.13
2022-11-10T13:53:06.983Z,77521.56
2022-11-10T13:55:37.692Z,77554.47
2022-11-10T13:58:05.369Z,77548.28
2022-11-10T14:00:33.443Z,77542.13
2022-11-10T14:03:01.384Z,77562.69
2022-11-10T14:05:28.639Z,77570.91
2022-11-10T14:08:03.233Z,77566.81
2022-11-10T14:10:44.969Z,77587.38
2022-11-10T14:13:14.282Z,77587.38
2022-11-10T14:15:43.119Z,77583.25
2022-11-10T14:18:23.708Z,77593.53
2022-11-10T14:20:58.020Z,77597.66
2022-11-10T14:23:26.298Z,77622.31
2022-11-10T14:25:55.086Z,77630.56
2022-11-10T14:28:32.054Z,77636.72
2022-11-10T14:30:59.607Z,77616.16
2022-11-10T14:33:26.770Z,77636.72
2022-11-10T14:35:55.468Z,77638.78
2022-11-10T14:38:26.824Z,77640.81
2022-11-10T14:40:54.672Z,77657.28
2022-11-10T14:43:34.277Z,77642.88
2022-11-10T14:46:01.788Z,77638.78
2022-11-10T14:48:30.279Z,77640.81
2022-11-10T14:51:05.425Z,77642.88
2022-11-10T14:53:36.533Z,77640.81
2022-11-10T14:56:05.668Z,77679.91
2022-11-10T14:58:33.451Z,77700.47
2022-11-10T15:01:01.408Z,77708.69
2022-11-10T15:03:31.361Z,77702.53
2022-11-10T15:06:02.336Z,77714.84
2022-11-10T15:08:29.623Z,77731.31
2022-11-10T15:10:56.971Z,77735.41
2022-11-10T15:13:28.249Z,77733.38
2022-11-10T15:16:14.128Z,77755.97
2022-11-10T15:18:41.757Z,77780.66
2022-11-10T15:21:10.550Z,77780.66
2022-11-10T15:23:38.498Z,77793.00
2022-11-10T15:26:05.700Z,77797.13
2022-11-10T15:28:36.056Z,77809.44
2022-11-10T15:31:06.903Z,77834.13
2022-11-10T15:33:35.764Z,77832.06
2022-11-10T15:36:21.724Z,77830.00
2022-11-10T15:39:04.187Z,77817.69
2022-11-10T15:41:32.905Z,77821.78
2022-11-10T15:44:16.711Z,77834.13
2022-11-10T15:46:44.507Z,77846.47
2022-11-10T15:49:28.114Z,77858.81
2022-11-10T15:51:56.550Z,77869.09
2022-11-10T15:54:24.596Z,77875.25
2022-11-10T15:56:51.630Z,77871.16
2022-11-10T15:59:19.007Z,77875.25
2022-11-10T16:01:46.109Z,77889.66
2022-11-10T16:04:13.576Z,77908.16
2022-11-10T16:06:40.785Z,77908.16
2022-11-10T16:09:10.519Z,77908.16
2022-11-10T16:11:37.989Z,77912.28
2022-11-10T16:14:05.006Z,77912.28
2022-11-10T16:16:33.137Z,77928.72
2022-11-10T16:19:01.684Z,77949.28
2022-11-10T16:21:28.840Z,77957.50
2022-11-10T16:23:56.561Z,77959.56
2022-11-10T16:26:23.939Z,77969.84
2022-11-10T16:28:51.843Z,77965.75
2022-11-10T16:31:19.909Z,77976.03
2022-11-10T16:33:47.255Z,77976.03
2022-11-10T16:36:30.800Z,77984.25
2022-11-10T16:38:57.871Z,77990.41
2022-11-10T16:41:25.268Z,77998.66
2022-11-10T16:43:52.309Z,77998.66
2022-11-10T16:46:22.495Z,77998.66
2022-11-10T16:48:51.249Z,78019.22
2022-11-10T16:51:18.508Z,78035.66
2022-11-10T16:53:45.612Z,78043.88
2022-11-10T16:56:16.003Z,78035.66
2022-11-10T16:58:44.739Z,78035.66
2022-11-10T17:01:21.805Z,78043.88
2022-11-10T17:03:56.648Z,78052.13
2022-11-10T17:06:24.127Z,78039.78
2022-11-10T17:08:51.423Z,78043.88
2022-11-10T17:11:18.609Z,78052.13
2022-11-10T17:13:45.706Z,78066.50
2022-11-10T17:16:20.000Z,78064.47
2022-11-10T17:18:47.037Z,78068.56
2022-11-10T17:21:14.434Z,78031.56
2022-11-10T17:23:41.497Z,78023.31
2022-11-10T17:26:09.169Z,78052.13
2022-11-10T17:28:37.504Z,78060.34
2022-11-10T17:31:05.012Z,78080.91
2022-11-10T17:33:32.779Z,78093.25
2022-11-10T17:36:00.152Z,78095.31
2022-11-10T17:38:30.958Z,78101.47
2022-11-10T17:40:58.235Z,78093.25
2022-11-10T17:43:25.680Z,78087.06
2022-11-10T17:45:53.065Z,78093.25
2022-11-10T17:48:21.293Z,78076.78
2022-11-10T17:50:48.427Z,78080.91
2022-11-10T17:53:19.865Z,78085.03
2022-11-10T17:55:48.123Z,78087.06
2022-11-10T17:58:15.572Z,78089.13
2022-11-10T18:00:42.695Z,78085.03
2022-11-10T18:03:20.174Z,78074.75
2022-11-10T18:05:47.779Z,78070.63
2022-11-10T18:08:15.870Z,78064.47
2022-11-10T18:10:50.297Z,78064.47
2022-11-10T18:13:18.894Z,78060.34
2022-11-10T18:15:50.472Z,78056.22
2022-11-10T18:18:17.732Z,78064.47
2022-11-10T18:20:45.067Z,78070.63
2022-11-10T18:23:12.700Z,78056.22
2022-11-10T18:25:40.044Z,78035.66
2022-11-10T18:28:07.102Z,78041.84
2022-11-10T18:30:35.526Z,78041.84
2022-11-10T18:33:03.160Z,78031.56
2022-11-10T18:35:30.272Z,78027.44
2022-11-10T18:37:57.781Z,78023.31
2022-11-10T18:40:24.837Z,78043.88
2022-11-10T18:42:55.679Z,78048.00
2022-11-10T18:45:24.029Z,78056.22
2022-11-10T18:47:51.092Z,78060.34
2022-11-10T18:50:18.441Z,78072.69
2022-11-10T18:52:46.174Z,78076.78
2022-11-10T18:55:13.394Z,78076.78
2022-11-10T18:57:40.424Z,78072.69
2022-11-10T19:00:07.888Z,78056.22
2022-11-10T19:02:35.391Z,78048.00
2022-11-10T19:05:02.591Z,78060.34
2022-11-10T19:07:29.904Z,78072.69
2022-11-10T19:09:57.674Z,78068.56
2022-11-10T19:12:26.753Z,78072.69
2022-11-10T19:14:54.049Z,78078.84
2022-11-10T19:17:21.143Z,78093.25
2022-11-10T19:19:53.463Z,78085.03
2022-11-10T19:22:24.804Z,78076.78
2022-11-10T19:25:07.599Z,78064.47
2022-11-10T19:27:37.739Z,78068.56
2022-11-10T19:30:05.015Z,78064.47
2022-11-10T19:32:32.840Z,78076.78
2022-11-10T19:35:04.763Z,78076.78
2022-11-10T19:37:36.965Z,78068.56
2022-11-10T19:40:04.242Z,78076.78
2022-11-10T19:42:32.051Z,78064.47
2022-11-10T19:44:59.169Z,78074.75
2022-11-10T19:47:26.742Z,78070.63
2022-11-10T19:49:54.224Z,78068.56
2022-11-10T19:52:21.812Z,78068.56
2022-11-10T19:54:48.828Z,78060.34
2022-11-10T19:57:15.936Z,78050.06
2022-11-10T19:59:43.424Z,78056.22
2022-11-10T20:02:13.352Z,78056.22
2022-11-10T20:05:01.064Z,78064.47
2022-11-10T20:07:48.018Z,78064.47
2022-11-10T20:10:16.696Z,78056.22
2022-11-10T20:12:45.908Z,78064.47
2022-11-10T20:15:17.101Z,78066.50
2022-11-10T20:17:44.145Z,78064.47
2022-11-10T20:20:11.711Z,78070.63
2022-11-10T20:22:39.475Z,78070.63
2022-11-10T20:25:06.723Z,78074.75
2022-11-10T20:27:35.305Z,78072.69
2022-11-10T20:30:03.073Z,78068.56
2022-11-10T20:32:30.284Z,78068.56
2022-11-10T20:34:58.046Z,78074.75
2022-11-10T20:37:25.862Z,78068.56
2022-11-10T20:39:54.243Z,78072.69
2022-11-10T20:42:22.928Z,78068.56
2022-11-10T20:44:49.943Z,78074.75
2022-11-10T20:47:17.579Z,78072.69
2022-11-10T20:49:45.248Z,78082.97
2022-11-10T20:52:14.304Z,78072.69
2022-11-10T20:54:43.703Z,78080.91
2022-11-10T20:57:10.785Z,78089.13
2022-11-10T20:59:37.859Z,78101.47
2022-11-10T21:02:05.581Z,78107.66
2022-11-10T21:04:32.724Z,78093.25
2022-11-10T21:06:59.926Z,78080.91
2022-11-10T21:09:27.800Z,78074.75
2022-11-10T21:12:13.724Z,78087.06
2022-11-10T21:14:40.770Z,78072.69
2022-11-10T21:17:08.010Z,78070.63
2022-11-10T21:19:35.150Z,78072.69
2022-11-10T21:22:02.224Z,78060.34
2022-11-10T21:24:29.615Z,78068.56
2022-11-10T21:26:58.260Z,78080.91
2022-11-10T21:29:25.397Z,78082.97
2022-11-10T21:31:54.199Z,78095.31
2022-11-10T21:34:21.363Z,78089.13
2022-11-10T21:36:48.370Z,78093.25
2022-11-10T21:39:15.500Z,78097.34
2022-11-10T21:41:43.566Z,78095.31
2022-11-10T21:44:10.630Z,78101.47
2022-11-10T21:46:37.744Z,78105.59
2022-11-10T21:49:07.820Z,78113.81
2022-11-10T21:51:36.661Z,78113.81
2022-11-10T21:54:03.820Z,78122.03
2022-11-10T21:56:31.235Z,78117.94
2022-11-10T21:58:58.540Z,78117.94
2022-11-10T22:01:25.634Z,78109.69
2022-11-10T22:03:52.700Z,78117.94
2022-11-10T22:06:21.187Z,78117.94
2022-11-10T22:08:49.208Z,78097.34
2022-11-10T22:11:38.622Z,78103.53
2022-11-10T22:14:30.496Z,78093.25
2022-11-10T22:17:18.007Z,78093.25
2022-11-10T22:19:45.115Z,78085.03
2022-11-10T22:22:14.270Z,78072.69
2022-11-10T22:24:41.482Z,78064.47
2022-11-10T22:27:08.540Z,78056.22
2022-11-10T22:29:35.635Z,78052.13
2022-11-10T22:32:02.812Z,78052.13
2022-11-10T22:34:30.150Z,78050.06
2022-11-10T22:36:59.653Z,78048.00
2022-11-10T22:39:46.093Z,78045.94
2022-11-10T22:42:32.721Z,78035.66
2022-11-10T22:45:00.188Z,78035.66
2022-11-10T22:47:47.255Z,78021.25
2022-11-10T22:50:14.793Z,78033.59
2022-11-10T22:52:42.157Z,78023.31
2022-11-10T22:55:09.280Z,78021.25
2022-11-10T22:57:36.635Z,78010.97
2022-11-10T23:00:04.004Z,77996.59
2022-11-10T23:02:31.305Z,77978.09
2022-11-10T23:04:58.804Z,77969.84
2022-11-10T23:07:25.876Z,77971.91
2022-11-10T23:09:52.895Z,77980.13
2022-11-10T23:12:20.000Z,77982.19
2022-11-10T23:14:47.035Z,77990.41
2022-11-10T23:17:15.831Z,77986.31
2022-11-10T23:19:43.044Z,77978.09
2022-11-10T23:22:10.412Z,77973.97
2022-11-10T23:24:38.497Z,77969.84
2022-11-10T23:27:05.579Z,77973.97
2022-11-10T23:29:32.629Z,77978.09
2022-11-10T23:32:00.067Z,77990.41
2022-11-10T23:34:27.131Z,77986.31
2022-11-10T23:36:54.216Z,77990.41
2022-11-10T23:39:21.409Z,77988.38
2022-11-10T23:41:49.077Z,77978.09
2022-11-10T23:44:17.462Z,77982.19
2022-11-10T23:46:44.488Z,77957.50
2022-11-10T23:49:11.535Z,77953.41
2022-11-10T23:51:38.585Z,77957.50
2022-11-10T23:54:05.604Z,77945.19
2022-11-10T23:56:33.680Z,77932.84
2022-11-10T23:59:00.779Z,77924.63
